Bethel, Washington
Current Conditions -  °F | °C
As of 8:00 AM on Saturday 25 Oct 2014 (Local Time) from KTCM Reporting Station
Light Rain Light Rain  
Wind Chill: 50°   Ceiling: 4300
Heat Index: 50°   Visibility: 7mi
Dew Point: 50°   Wind: 3mph
Humidity: 100%   Direction: 200°SSW
Pressure: 29.57"   Gusts: NA
Location:  47.0761°N, 122.396°W
Report Text: KTCM 251500Z AUTO 20003KT 7SM -RA SCT006 BKN043 OVC065 10/10 A2957 RMK AO2 $
Loading
Personal Weather Stations






























Interactive Weather Map
Tropical Storm Tracking
New forecast layout! Learn more

10-Day Weather Forecast

Advertisements
Track Severe Weather on mobile